sensor_id;sensor_type;location;lat;lon;timestamp;P1;durP1;ratioP1;P2;durP2;ratioP2
75191;SDS011;63771;52.580;9.734;2023-09-12T00:01:22;12.80;;;9.47;;
75191;SDS011;63771;52.580;9.734;2023-09-12T00:03:47;15.27;;;8.87;;
75191;SDS011;63771;52.580;9.734;2023-09-12T00:06:13;13.30;;;8.77;;
75191;SDS011;63771;52.580;9.734;2023-09-12T00:08:38;10.37;;;8.87;;
75191;SDS011;63771;52.580;9.734;2023-09-12T00:11:07;12.80;;;9.93;;
75191;SDS011;63771;52.580;9.734;2023-09-12T00:13:38;13.05;;;9.38;;
75191;SDS011;63771;52.580;9.734;2023-09-12T00:16:05;12.65;;;8.93;;
75191;SDS011;63771;52.580;9.734;2023-09-12T00:18:30;17.13;;;10.43;;
75191;SDS011;63771;52.580;9.734;2023-09-12T00:20:56;14.10;;;9.93;;
75191;SDS011;63771;52.580;9.734;2023-09-12T00:23:22;11.35;;;8.63;;
75191;SDS011;63771;52.580;9.734;2023-09-12T00:25:49;13.07;;;9.93;;
75191;SDS011;63771;52.580;9.734;2023-09-12T00:28:16;10.60;;;8.75;;
75191;SDS011;63771;52.580;9.734;2023-09-12T00:30:41;13.27;;;9.52;;
75191;SDS011;63771;52.580;9.734;2023-09-12T00:33:07;11.80;;;9.47;;
75191;SDS011;63771;52.580;9.734;2023-09-12T00:35:32;13.13;;;11.13;;
75191;SDS011;63771;52.580;9.734;2023-09-12T00:37:57;12.47;;;10.47;;
75191;SDS011;63771;52.580;9.734;2023-09-12T00:40:23;15.67;;;9.80;;
75191;SDS011;63771;52.580;9.734;2023-09-12T00:42:48;16.30;;;10.63;;
75191;SDS011;63771;52.580;9.734;2023-09-12T00:45:13;11.98;;;9.75;;
75191;SDS011;63771;52.580;9.734;2023-09-12T00:47:39;14.27;;;10.18;;
75191;SDS011;63771;52.580;9.734;2023-09-12T00:50:05;11.10;;;10.00;;
75191;SDS011;63771;52.580;9.734;2023-09-12T00:52:32;16.27;;;10.57;;
75191;SDS011;63771;52.580;9.734;2023-09-12T00:55:00;15.38;;;10.43;;
75191;SDS011;63771;52.580;9.734;2023-09-12T00:57:25;10.45;;;9.07;;
75191;SDS011;63771;52.580;9.734;2023-09-12T00:59:51;18.05;;;10.57;;
75191;SDS011;63771;52.580;9.734;2023-09-12T01:02:18;13.40;;;9.90;;
75191;SDS011;63771;52.580;9.734;2023-09-12T01:04:44;12.30;;;8.73;;
75191;SDS011;63771;52.580;9.734;2023-09-12T01:07:11;10.18;;;9.02;;
75191;SDS011;63771;52.580;9.734;2023-09-12T01:09:36;14.32;;;10.88;;
75191;SDS011;63771;52.580;9.734;2023-09-12T01:12:02;18.30;;;10.25;;
75191;SDS011;63771;52.580;9.734;2023-09-12T01:14:28;13.75;;;11.27;;
75191;SDS011;63771;52.580;9.734;2023-09-12T01:16:53;14.35;;;9.93;;
75191;SDS011;63771;52.580;9.734;2023-09-12T01:19:19;11.07;;;9.68;;
75191;SDS011;63771;52.580;9.734;2023-09-12T01:24:45;14.05;;;9.25;;
75191;SDS011;63771;52.580;9.734;2023-09-12T01:27:35;14.07;;;10.52;;
75191;SDS011;63771;52.580;9.734;2023-09-12T01:30:07;12.00;;;10.25;;
75191;SDS011;63771;52.580;9.734;2023-09-12T01:32:33;15.27;;;10.32;;
75191;SDS011;63771;52.580;9.734;2023-09-12T01:35:00;11.77;;;9.48;;
75191;SDS011;63771;52.580;9.734;2023-09-12T01:37:27;14.30;;;10.40;;
75191;SDS011;63771;52.580;9.734;2023-09-12T01:39:53;10.47;;;9.23;;
75191;SDS011;63771;52.580;9.734;2023-09-12T01:42:18;13.88;;;10.20;;
75191;SDS011;63771;52.580;9.734;2023-09-12T01:44:45;12.55;;;10.68;;
75191;SDS011;63771;52.580;9.734;2023-09-12T01:47:14;14.70;;;10.88;;
75191;SDS011;63771;52.580;9.734;2023-09-12T01:52:10;17.05;;;11.02;;
75191;SDS011;63771;52.580;9.734;2023-09-12T01:54:36;17.70;;;10.77;;
75191;SDS011;63771;52.580;9.734;2023-09-12T01:57:03;13.48;;;10.25;;
75191;SDS011;63771;52.580;9.734;2023-09-12T01:59:29;12.18;;;10.27;;
75191;SDS011;63771;52.580;9.734;2023-09-12T02:01:54;13.68;;;10.45;;
75191;SDS011;63771;52.580;9.734;2023-09-12T02:04:20;14.53;;;11.07;;
75191;SDS011;63771;52.580;9.734;2023-09-12T02:06:45;12.80;;;10.73;;
75191;SDS011;63771;52.580;9.734;2023-09-12T02:09:10;16.40;;;11.67;;
75191;SDS011;63771;52.580;9.734;2023-09-12T02:11:36;14.07;;;11.50;;
75191;SDS011;63771;52.580;9.734;2023-09-12T02:14:01;13.60;;;11.00;;
75191;SDS011;63771;52.580;9.734;2023-09-12T02:16:27;15.65;;;12.40;;
75191;SDS011;63771;52.580;9.734;2023-09-12T02:18:52;17.63;;;12.65;;
75191;SDS011;63771;52.580;9.734;2023-09-12T02:21:18;14.23;;;12.17;;
75191;SDS011;63771;52.580;9.734;2023-09-12T02:23:43;16.90;;;11.47;;
75191;SDS011;63771;52.580;9.734;2023-09-12T02:26:08;15.32;;;12.45;;
75191;SDS011;63771;52.580;9.734;2023-09-12T02:28:34;14.67;;;11.97;;
75191;SDS011;63771;52.580;9.734;2023-09-12T02:30:59;18.30;;;12.90;;
75191;SDS011;63771;52.580;9.734;2023-09-12T02:33:24;16.63;;;11.90;;
75191;SDS011;63771;52.580;9.734;2023-09-12T02:35:50;15.47;;;12.43;;
75191;SDS011;63771;52.580;9.734;2023-09-12T02:38:15;18.20;;;12.40;;
75191;SDS011;63771;52.580;9.734;2023-09-12T02:40:41;14.75;;;11.75;;
75191;SDS011;63771;52.580;9.734;2023-09-12T02:43:06;14.73;;;11.52;;
75191;SDS011;63771;52.580;9.734;2023-09-12T02:45:32;19.33;;;12.80;;
75191;SDS011;63771;52.580;9.734;2023-09-12T02:47:57;19.67;;;12.25;;
75191;SDS011;63771;52.580;9.734;2023-09-12T02:50:23;18.57;;;11.97;;
75191;SDS011;63771;52.580;9.734;2023-09-12T02:52:48;19.27;;;11.83;;
75191;SDS011;63771;52.580;9.734;2023-09-12T02:55:13;18.67;;;13.43;;
75191;SDS011;63771;52.580;9.734;2023-09-12T02:57:39;16.80;;;13.63;;
75191;SDS011;63771;52.580;9.734;2023-09-12T03:00:04;19.17;;;12.63;;
75191;SDS011;63771;52.580;9.734;2023-09-12T03:02:32;18.85;;;13.43;;
75191;SDS011;63771;52.580;9.734;2023-09-12T03:04:57;15.07;;;13.23;;
75191;SDS011;63771;52.580;9.734;2023-09-12T03:07:23;18.05;;;12.85;;
75191;SDS011;63771;52.580;9.734;2023-09-12T03:09:48;22.90;;;14.03;;
75191;SDS011;63771;52.580;9.734;2023-09-12T03:12:14;15.15;;;13.48;;
75191;SDS011;63771;52.580;9.734;2023-09-12T03:14:40;18.75;;;13.48;;
75191;SDS011;63771;52.580;9.734;2023-09-12T03:17:05;18.73;;;12.80;;
75191;SDS011;63771;52.580;9.734;2023-09-12T03:19:31;16.17;;;13.05;;
75191;SDS011;63771;52.580;9.734;2023-09-12T03:21:56;15.57;;;13.13;;
75191;SDS011;63771;52.580;9.734;2023-09-12T03:24:21;21.70;;;12.17;;
75191;SDS011;63771;52.580;9.734;2023-09-12T03:29:14;14.23;;;12.07;;
75191;SDS011;63771;52.580;9.734;2023-09-12T03:31:40;18.20;;;12.43;;
75191;SDS011;63771;52.580;9.734;2023-09-12T03:34:05;15.40;;;13.77;;
75191;SDS011;63771;52.580;9.734;2023-09-12T03:36:30;16.25;;;13.02;;
75191;SDS011;63771;52.580;9.734;2023-09-12T03:38:56;18.87;;;14.37;;
75191;SDS011;63771;52.580;9.734;2023-09-12T03:41:21;23.57;;;16.43;;
75191;SDS011;63771;52.580;9.734;2023-09-12T03:43:50;20.20;;;14.63;;
75191;SDS011;63771;52.580;9.734;2023-09-12T03:46:15;21.35;;;15.18;;
75191;SDS011;63771;52.580;9.734;2023-09-12T03:48:41;21.83;;;16.30;;
75191;SDS011;63771;52.580;9.734;2023-09-12T03:51:06;22.77;;;17.43;;
75191;SDS011;63771;52.580;9.734;2023-09-12T03:53:31;21.80;;;15.10;;
75191;SDS011;63771;52.580;9.734;2023-09-12T03:55:57;18.63;;;14.73;;
75191;SDS011;63771;52.580;9.734;2023-09-12T03:58:23;22.77;;;14.88;;
75191;SDS011;63771;52.580;9.734;2023-09-12T04:00:49;27.50;;;16.02;;
75191;SDS011;63771;52.580;9.734;2023-09-12T04:03:14;26.65;;;17.05;;
75191;SDS011;63771;52.580;9.734;2023-09-12T04:05:41;26.73;;;17.42;;
75191;SDS011;63771;52.580;9.734;2023-09-12T04:08:06;29.85;;;16.83;;
75191;SDS011;63771;52.580;9.734;2023-09-12T04:10:32;29.73;;;17.07;;
75191;SDS011;63771;52.580;9.734;2023-09-12T04:12:57;33.30;;;19.73;;
75191;SDS011;63771;52.580;9.734;2023-09-12T04:15:22;26.13;;;16.83;;
75191;SDS011;63771;52.580;9.734;2023-09-12T04:17:48;33.57;;;18.53;;
75191;SDS011;63771;52.580;9.734;2023-09-12T04:20:13;32.80;;;18.57;;
75191;SDS011;63771;52.580;9.734;2023-09-12T04:22:39;28.13;;;18.13;;
75191;SDS011;63771;52.580;9.734;2023-09-12T04:25:05;31.48;;;17.30;;
75191;SDS011;63771;52.580;9.734;2023-09-12T04:27:30;27.73;;;16.92;;
75191;SDS011;63771;52.580;9.734;2023-09-12T04:29:56;29.93;;;17.00;;
75191;SDS011;63771;52.580;9.734;2023-09-12T04:32:21;21.60;;;16.33;;
75191;SDS011;63771;52.580;9.734;2023-09-12T04:34:48;30.77;;;16.88;;
75191;SDS011;63771;52.580;9.734;2023-09-12T04:37:14;22.40;;;16.10;;
75191;SDS011;63771;52.580;9.734;2023-09-12T04:39:39;28.98;;;17.40;;
75191;SDS011;63771;52.580;9.734;2023-09-12T04:42:05;26.83;;;17.63;;
75191;SDS011;63771;52.580;9.734;2023-09-12T04:44:34;26.42;;;15.95;;
75191;SDS011;63771;52.580;9.734;2023-09-12T04:47:00;27.40;;;16.38;;
75191;SDS011;63771;52.580;9.734;2023-09-12T04:49:27;25.60;;;15.85;;
75191;SDS011;63771;52.580;9.734;2023-09-12T04:51:52;19.08;;;15.05;;
75191;SDS011;63771;52.580;9.734;2023-09-12T04:54:18;21.23;;;14.20;;
75191;SDS011;63771;52.580;9.734;2023-09-12T04:56:43;22.63;;;15.55;;
75191;SDS011;63771;52.580;9.734;2023-09-12T04:59:08;20.05;;;14.90;;
75191;SDS011;63771;52.580;9.734;2023-09-12T05:01:34;21.70;;;14.32;;
75191;SDS011;63771;52.580;9.734;2023-09-12T05:03:59;19.97;;;14.80;;
75191;SDS011;63771;52.580;9.734;2023-09-12T05:06:24;21.45;;;15.50;;
75191;SDS011;63771;52.580;9.734;2023-09-12T05:08:50;21.67;;;14.67;;
75191;SDS011;63771;52.580;9.734;2023-09-12T05:11:15;18.83;;;13.20;;
75191;SDS011;63771;52.580;9.734;2023-09-12T05:13:40;19.50;;;13.00;;
75191;SDS011;63771;52.580;9.734;2023-09-12T05:16:06;18.35;;;13.05;;
75191;SDS011;63771;52.580;9.734;2023-09-12T05:18:31;18.52;;;14.48;;
75191;SDS011;63771;52.580;9.734;2023-09-12T05:20:57;19.48;;;14.27;;
75191;SDS011;63771;52.580;9.734;2023-09-12T05:23:22;20.30;;;13.27;;
75191;SDS011;63771;52.580;9.734;2023-09-12T05:25:47;19.52;;;12.63;;
75191;SDS011;63771;52.580;9.734;2023-09-12T05:28:13;16.73;;;11.68;;
75191;SDS011;63771;52.580;9.734;2023-09-12T05:30:42;16.63;;;12.18;;
75191;SDS011;63771;52.580;9.734;2023-09-12T05:33:07;17.27;;;12.00;;
75191;SDS011;63771;52.580;9.734;2023-09-12T05:35:33;19.10;;;11.63;;
75191;SDS011;63771;52.580;9.734;2023-09-12T05:37:58;14.57;;;9.87;;
75191;SDS011;63771;52.580;9.734;2023-09-12T05:40:23;12.68;;;10.13;;
75191;SDS011;63771;52.580;9.734;2023-09-12T05:42:49;10.50;;;9.20;;
75191;SDS011;63771;52.580;9.734;2023-09-12T05:45:14;9.68;;;8.23;;
75191;SDS011;63771;52.580;9.734;2023-09-12T05:47:40;10.45;;;7.97;;
75191;SDS011;63771;52.580;9.734;2023-09-12T05:50:05;15.18;;;7.90;;
75191;SDS011;63771;52.580;9.734;2023-09-12T05:52:32;6.28;;;5.20;;
75191;SDS011;63771;52.580;9.734;2023-09-12T05:54:58;12.13;;;6.60;;
75191;SDS011;63771;52.580;9.734;2023-09-12T05:57:23;14.00;;;7.50;;
75191;SDS011;63771;52.580;9.734;2023-09-12T05:59:48;6.97;;;5.40;;
75191;SDS011;63771;52.580;9.734;2023-09-12T06:02:14;10.13;;;6.25;;
75191;SDS011;63771;52.580;9.734;2023-09-12T06:04:39;8.20;;;5.40;;
75191;SDS011;63771;52.580;9.734;2023-09-12T06:07:05;8.43;;;6.00;;
75191;SDS011;63771;52.580;9.734;2023-09-12T06:09:30;6.20;;;5.20;;
75191;SDS011;63771;52.580;9.734;2023-09-12T06:11:56;7.35;;;5.38;;
75191;SDS011;63771;52.580;9.734;2023-09-12T06:14:21;8.02;;;5.75;;
75191;SDS011;63771;52.580;9.734;2023-09-12T06:16:47;8.32;;;6.55;;
75191;SDS011;63771;52.580;9.734;2023-09-12T06:19:12;7.20;;;6.03;;
75191;SDS011;63771;52.580;9.734;2023-09-12T06:21:39;9.52;;;6.90;;
75191;SDS011;63771;52.580;9.734;2023-09-12T06:24:37;7.90;;;6.07;;
75191;SDS011;63771;52.580;9.734;2023-09-12T06:26:56;7.53;;;5.50;;
75191;SDS011;63771;52.580;9.734;2023-09-12T06:29:22;7.63;;;6.70;;
75191;SDS011;63771;52.580;9.734;2023-09-12T06:31:47;6.80;;;5.30;;
75191;SDS011;63771;52.580;9.734;2023-09-12T06:34:13;6.18;;;5.53;;
75191;SDS011;63771;52.580;9.734;2023-09-12T06:36:38;7.83;;;6.33;;
75191;SDS011;63771;52.580;9.734;2023-09-12T06:39:04;7.95;;;5.30;;
75191;SDS011;63771;52.580;9.734;2023-09-12T06:41:30;7.10;;;6.38;;
75191;SDS011;63771;52.580;9.734;2023-09-12T06:43:55;8.77;;;5.95;;
75191;SDS011;63771;52.580;9.734;2023-09-12T06:46:23;8.85;;;7.03;;
75191;SDS011;63771;52.580;9.734;2023-09-12T06:48:48;7.70;;;6.03;;
75191;SDS011;63771;52.580;9.734;2023-09-12T06:51:16;8.88;;;6.82;;
75191;SDS011;63771;52.580;9.734;2023-09-12T06:53:42;10.52;;;6.50;;
75191;SDS011;63771;52.580;9.734;2023-09-12T06:56:08;8.05;;;6.40;;
75191;SDS011;63771;52.580;9.734;2023-09-12T06:58:33;10.55;;;7.65;;
75191;SDS011;63771;52.580;9.734;2023-09-12T07:01:05;8.02;;;6.95;;
75191;SDS011;63771;52.580;9.734;2023-09-12T07:03:32;8.25;;;7.20;;
75191;SDS011;63771;52.580;9.734;2023-09-12T07:05:58;12.50;;;7.03;;
75191;SDS011;63771;52.580;9.734;2023-09-12T07:08:23;8.90;;;7.50;;
75191;SDS011;63771;52.580;9.734;2023-09-12T07:10:49;10.55;;;7.63;;
75191;SDS011;63771;52.580;9.734;2023-09-12T07:13:14;7.90;;;6.68;;
75191;SDS011;63771;52.580;9.734;2023-09-12T07:15:40;8.33;;;7.23;;
75191;SDS011;63771;52.580;9.734;2023-09-12T07:18:05;8.43;;;6.45;;
75191;SDS011;63771;52.580;9.734;2023-09-12T07:20:31;11.35;;;6.97;;
75191;SDS011;63771;52.580;9.734;2023-09-12T07:22:57;7.32;;;6.35;;
75191;SDS011;63771;52.580;9.734;2023-09-12T07:25:22;9.53;;;7.30;;
75191;SDS011;63771;52.580;9.734;2023-09-12T07:27:49;8.30;;;6.72;;
75191;SDS011;63771;52.580;9.734;2023-09-12T07:30:17;8.50;;;7.38;;
75191;SDS011;63771;52.580;9.734;2023-09-12T07:32:43;7.93;;;7.13;;
75191;SDS011;63771;52.580;9.734;2023-09-12T07:35:08;9.88;;;7.65;;
75191;SDS011;63771;52.580;9.734;2023-09-12T07:37:34;9.70;;;7.68;;
75191;SDS011;63771;52.580;9.734;2023-09-12T07:39:59;9.73;;;6.97;;
75191;SDS011;63771;52.580;9.734;2023-09-12T07:42:25;12.60;;;7.22;;
75191;SDS011;63771;52.580;9.734;2023-09-12T07:44:50;8.50;;;6.75;;
75191;SDS011;63771;52.580;9.734;2023-09-12T07:47:16;7.45;;;6.70;;
75191;SDS011;63771;52.580;9.734;2023-09-12T07:49:41;7.90;;;7.03;;
75191;SDS011;63771;52.580;9.734;2023-09-12T07:52:06;10.63;;;6.90;;
75191;SDS011;63771;52.580;9.734;2023-09-12T07:54:32;9.40;;;6.78;;
75191;SDS011;63771;52.580;9.734;2023-09-12T07:56:57;9.80;;;6.78;;
75191;SDS011;63771;52.580;9.734;2023-09-12T07:59:23;9.17;;;7.20;;
75191;SDS011;63771;52.580;9.734;2023-09-12T08:01:48;7.93;;;7.00;;
75191;SDS011;63771;52.580;9.734;2023-09-12T08:04:13;8.00;;;6.50;;
75191;SDS011;63771;52.580;9.734;2023-09-12T08:06:39;8.02;;;7.22;;
75191;SDS011;63771;52.580;9.734;2023-09-12T08:09:06;9.25;;;7.00;;
75191;SDS011;63771;52.580;9.734;2023-09-12T08:11:31;7.65;;;6.95;;
75191;SDS011;63771;52.580;9.734;2023-09-12T08:13:57;7.72;;;6.53;;
75191;SDS011;63771;52.580;9.734;2023-09-12T08:16:22;9.52;;;6.55;;
75191;SDS011;63771;52.580;9.734;2023-09-12T08:18:47;8.67;;;6.83;;
75191;SDS011;63771;52.580;9.734;2023-09-12T08:21:13;7.88;;;6.88;;
75191;SDS011;63771;52.580;9.734;2023-09-12T08:23:38;6.68;;;6.07;;
75191;SDS011;63771;52.580;9.734;2023-09-12T08:26:03;8.23;;;7.43;;
75191;SDS011;63771;52.580;9.734;2023-09-12T08:28:29;6.83;;;5.43;;
75191;SDS011;63771;52.580;9.734;2023-09-12T08:30:54;12.13;;;7.30;;
75191;SDS011;63771;52.580;9.734;2023-09-12T08:33:19;9.97;;;6.33;;
75191;SDS011;63771;52.580;9.734;2023-09-12T08:35:45;8.87;;;6.23;;
75191;SDS011;63771;52.580;9.734;2023-09-12T08:38:10;7.43;;;6.57;;
75191;SDS011;63771;52.580;9.734;2023-09-12T08:40:36;8.57;;;6.93;;
75191;SDS011;63771;52.580;9.734;2023-09-12T08:43:02;8.90;;;6.63;;
75191;SDS011;63771;52.580;9.734;2023-09-12T08:45:31;7.07;;;6.35;;
75191;SDS011;63771;52.580;9.734;2023-09-12T08:47:58;10.73;;;6.72;;
75191;SDS011;63771;52.580;9.734;2023-09-12T08:50:26;8.98;;;6.57;;
75191;SDS011;63771;52.580;9.734;2023-09-12T08:52:55;9.23;;;6.95;;
75191;SDS011;63771;52.580;9.734;2023-09-12T08:55:21;9.93;;;6.17;;
75191;SDS011;63771;52.580;9.734;2023-09-12T08:57:47;9.18;;;5.60;;
75191;SDS011;63771;52.580;9.734;2023-09-12T09:00:15;10.07;;;6.55;;
75191;SDS011;63771;52.580;9.734;2023-09-12T09:02:40;9.05;;;6.70;;
75191;SDS011;63771;52.580;9.734;2023-09-12T09:05:08;6.28;;;5.32;;
75191;SDS011;63771;52.580;9.734;2023-09-12T09:07:35;10.65;;;6.10;;
75191;SDS011;63771;52.580;9.734;2023-09-12T09:10:02;9.05;;;6.15;;
75191;SDS011;63771;52.580;9.734;2023-09-12T09:14:55;7.87;;;5.73;;
75191;SDS011;63771;52.580;9.734;2023-09-12T09:17:20;7.70;;;6.33;;
75191;SDS011;63771;52.580;9.734;2023-09-12T09:19:46;8.63;;;6.60;;
75191;SDS011;63771;52.580;9.734;2023-09-12T09:22:12;7.97;;;6.43;;
75191;SDS011;63771;52.580;9.734;2023-09-12T09:24:38;10.43;;;6.30;;
75191;SDS011;63771;52.580;9.734;2023-09-12T09:27:03;8.65;;;6.25;;
75191;SDS011;63771;52.580;9.734;2023-09-12T09:29:29;10.63;;;6.38;;
75191;SDS011;63771;52.580;9.734;2023-09-12T09:31:57;12.23;;;6.97;;
75191;SDS011;63771;52.580;9.734;2023-09-12T09:34:24;8.15;;;6.28;;
75191;SDS011;63771;52.580;9.734;2023-09-12T09:36:50;10.52;;;6.05;;
75191;SDS011;63771;52.580;9.734;2023-09-12T09:39:17;7.35;;;6.47;;
75191;SDS011;63771;52.580;9.734;2023-09-12T09:41:50;8.82;;;6.93;;
75191;SDS011;63771;52.580;9.734;2023-09-12T09:44:17;10.40;;;6.38;;
75191;SDS011;63771;52.580;9.734;2023-09-12T09:46:43;11.75;;;7.18;;
75191;SDS011;63771;52.580;9.734;2023-09-12T09:49:10;10.82;;;7.72;;
75191;SDS011;63771;52.580;9.734;2023-09-12T09:51:42;10.25;;;6.78;;
75191;SDS011;63771;52.580;9.734;2023-09-12T09:54:08;8.77;;;7.03;;
75191;SDS011;63771;52.580;9.734;2023-09-12T09:56:37;8.80;;;7.15;;
75191;SDS011;63771;52.580;9.734;2023-09-12T09:59:11;8.80;;;6.80;;
75191;SDS011;63771;52.580;9.734;2023-09-12T10:01:39;8.77;;;6.50;;
75191;SDS011;63771;52.580;9.734;2023-09-12T10:04:05;8.30;;;6.03;;
75191;SDS011;63771;52.580;9.734;2023-09-12T10:06:32;10.43;;;7.03;;
75191;SDS011;63771;52.580;9.734;2023-09-12T10:09:01;11.27;;;7.20;;
75191;SDS011;63771;52.580;9.734;2023-09-12T10:11:31;7.38;;;6.28;;
75191;SDS011;63771;52.580;9.734;2023-09-12T10:13:59;8.77;;;6.65;;
75191;SDS011;63771;52.580;9.734;2023-09-12T10:16:32;11.20;;;7.78;;
75191;SDS011;63771;52.580;9.734;2023-09-12T10:18:59;9.15;;;7.13;;
75191;SDS011;63771;52.580;9.734;2023-09-12T10:21:44;9.90;;;7.47;;
75191;SDS011;63771;52.580;9.734;2023-09-12T10:24:28;11.70;;;7.53;;
75191;SDS011;63771;52.580;9.734;2023-09-12T10:26:55;9.52;;;7.55;;
75191;SDS011;63771;52.580;9.734;2023-09-12T10:29:22;11.50;;;8.00;;
75191;SDS011;63771;52.580;9.734;2023-09-12T10:31:48;8.68;;;6.95;;
75191;SDS011;63771;52.580;9.734;2023-09-12T10:34:13;10.38;;;6.88;;
75191;SDS011;63771;52.580;9.734;2023-09-12T10:36:40;10.45;;;7.35;;
75191;SDS011;63771;52.580;9.734;2023-09-12T10:39:07;9.30;;;7.90;;
75191;SDS011;63771;52.580;9.734;2023-09-12T10:41:36;8.98;;;6.78;;
75191;SDS011;63771;52.580;9.734;2023-09-12T10:44:04;10.45;;;7.03;;
75191;SDS011;63771;52.580;9.734;2023-09-12T10:46:35;8.57;;;7.15;;
75191;SDS011;63771;52.580;9.734;2023-09-12T10:49:03;8.10;;;7.30;;
75191;SDS011;63771;52.580;9.734;2023-09-12T10:51:31;7.10;;;6.30;;
75191;SDS011;63771;52.580;9.734;2023-09-12T10:53:56;12.98;;;7.25;;
75191;SDS011;63771;52.580;9.734;2023-09-12T10:56:22;9.88;;;7.18;;
75191;SDS011;63771;52.580;9.734;2023-09-12T11:01:35;9.43;;;7.70;;
75191;SDS011;63771;52.580;9.734;2023-09-12T11:06:45;7.72;;;6.47;;
75191;SDS011;63771;52.580;9.734;2023-09-12T11:11:39;8.15;;;6.50;;
75191;SDS011;63771;52.580;9.734;2023-09-12T11:14:06;10.15;;;6.70;;
75191;SDS011;63771;52.580;9.734;2023-09-12T11:16:32;10.52;;;7.55;;
75191;SDS011;63771;52.580;9.734;2023-09-12T11:21:51;8.07;;;6.90;;
75191;SDS011;63771;52.580;9.734;2023-09-12T11:24:18;7.47;;;6.75;;
75191;SDS011;63771;52.580;9.734;2023-09-12T11:26:57;8.63;;;6.97;;
75191;SDS011;63771;52.580;9.734;2023-09-12T11:29:34;8.07;;;6.65;;
75191;SDS011;63771;52.580;9.734;2023-09-12T11:32:01;9.80;;;7.25;;
75191;SDS011;63771;52.580;9.734;2023-09-12T11:34:28;10.75;;;6.63;;
75191;SDS011;63771;52.580;9.734;2023-09-12T11:36:57;9.48;;;7.15;;
75191;SDS011;63771;52.580;9.734;2023-09-12T11:39:31;8.93;;;7.35;;
75191;SDS011;63771;52.580;9.734;2023-09-12T11:41:59;8.82;;;6.07;;
75191;SDS011;63771;52.580;9.734;2023-09-12T11:44:26;9.57;;;6.72;;
75191;SDS011;63771;52.580;9.734;2023-09-12T11:46:52;8.63;;;6.63;;
75191;SDS011;63771;52.580;9.734;2023-09-12T11:49:18;7.93;;;7.15;;
75191;SDS011;63771;52.580;9.734;2023-09-12T11:51:48;7.82;;;6.63;;
75191;SDS011;63771;52.580;9.734;2023-09-12T11:54:18;10.75;;;6.70;;
75191;SDS011;63771;52.580;9.734;2023-09-12T11:56:44;7.18;;;6.45;;
75191;SDS011;63771;52.580;9.734;2023-09-12T11:59:10;8.82;;;6.80;;
75191;SDS011;63771;52.580;9.734;2023-09-12T12:01:35;9.52;;;7.05;;
75191;SDS011;63771;52.580;9.734;2023-09-12T12:04:01;9.48;;;6.65;;
75191;SDS011;63771;52.580;9.734;2023-09-12T12:06:27;12.43;;;5.90;;
75191;SDS011;63771;52.580;9.734;2023-09-12T12:08:54;9.13;;;6.85;;
75191;SDS011;63771;52.580;9.734;2023-09-12T12:11:20;7.28;;;6.45;;
75191;SDS011;63771;52.580;9.734;2023-09-12T12:13:45;8.27;;;6.10;;
75191;SDS011;63771;52.580;9.734;2023-09-12T12:16:15;9.32;;;6.32;;
75191;SDS011;63771;52.580;9.734;2023-09-12T12:18:41;9.00;;;6.95;;
75191;SDS011;63771;52.580;9.734;2023-09-12T12:21:07;8.48;;;7.43;;
75191;SDS011;63771;52.580;9.734;2023-09-12T12:23:32;9.73;;;6.60;;
75191;SDS011;63771;52.580;9.734;2023-09-12T12:26:02;9.33;;;6.77;;
75191;SDS011;63771;52.580;9.734;2023-09-12T12:28:37;8.85;;;6.93;;
75191;SDS011;63771;52.580;9.734;2023-09-12T12:31:03;8.52;;;6.75;;
75191;SDS011;63771;52.580;9.734;2023-09-12T12:33:29;7.18;;;6.43;;
75191;SDS011;63771;52.580;9.734;2023-09-12T12:36:04;10.55;;;7.63;;
75191;SDS011;63771;52.580;9.734;2023-09-12T12:38:33;10.73;;;7.20;;
75191;SDS011;63771;52.580;9.734;2023-09-12T12:41:00;9.80;;;8.02;;
75191;SDS011;63771;52.580;9.734;2023-09-12T12:43:25;6.53;;;5.78;;
75191;SDS011;63771;52.580;9.734;2023-09-12T12:45:52;6.85;;;6.20;;
75191;SDS011;63771;52.580;9.734;2023-09-12T12:48:28;9.70;;;6.53;;
75191;SDS011;63771;52.580;9.734;2023-09-12T12:50:58;7.18;;;6.25;;
75191;SDS011;63771;52.580;9.734;2023-09-12T12:56:11;7.05;;;6.35;;
75191;SDS011;63771;52.580;9.734;2023-09-12T12:59:02;8.00;;;7.20;;
75191;SDS011;63771;52.580;9.734;2023-09-12T13:01:32;9.30;;;6.93;;
75191;SDS011;63771;52.580;9.734;2023-09-12T13:03:58;7.05;;;6.25;;
75191;SDS011;63771;52.580;9.734;2023-09-12T13:06:24;6.30;;;5.70;;
75191;SDS011;63771;52.580;9.734;2023-09-12T13:08:51;7.85;;;6.22;;
75191;SDS011;63771;52.580;9.734;2023-09-12T13:11:16;8.00;;;5.88;;
75191;SDS011;63771;52.580;9.734;2023-09-12T13:13:42;7.45;;;6.10;;
75191;SDS011;63771;52.580;9.734;2023-09-12T13:16:08;7.78;;;6.05;;
75191;SDS011;63771;52.580;9.734;2023-09-12T13:18:36;7.70;;;5.45;;
75191;SDS011;63771;52.580;9.734;2023-09-12T13:21:02;6.38;;;5.68;;
75191;SDS011;63771;52.580;9.734;2023-09-12T13:23:28;6.53;;;5.15;;
75191;SDS011;63771;52.580;9.734;2023-09-12T13:25:54;5.38;;;4.88;;
75191;SDS011;63771;52.580;9.734;2023-09-12T13:28:20;5.53;;;5.00;;
75191;SDS011;63771;52.580;9.734;2023-09-12T13:30:45;5.07;;;4.57;;
75191;SDS011;63771;52.580;9.734;2023-09-12T13:33:11;5.60;;;4.53;;
75191;SDS011;63771;52.580;9.734;2023-09-12T13:35:37;5.72;;;4.82;;
75191;SDS011;63771;52.580;9.734;2023-09-12T13:38:03;4.72;;;4.30;;
75191;SDS011;63771;52.580;9.734;2023-09-12T13:40:34;5.38;;;4.85;;
75191;SDS011;63771;52.580;9.734;2023-09-12T13:43:03;8.38;;;4.75;;
75191;SDS011;63771;52.580;9.734;2023-09-12T13:45:29;5.80;;;4.45;;
75191;SDS011;63771;52.580;9.734;2023-09-12T13:47:54;5.07;;;4.28;;
75191;SDS011;63771;52.580;9.734;2023-09-12T13:50:19;5.63;;;5.03;;
75191;SDS011;63771;52.580;9.734;2023-09-12T13:52:45;4.93;;;4.33;;
75191;SDS011;63771;52.580;9.734;2023-09-12T13:55:10;4.37;;;4.03;;
75191;SDS011;63771;52.580;9.734;2023-09-12T13:57:39;5.53;;;4.57;;
75191;SDS011;63771;52.580;9.734;2023-09-12T14:00:04;4.60;;;4.20;;
75191;SDS011;63771;52.580;9.734;2023-09-12T14:02:30;4.63;;;4.20;;
75191;SDS011;63771;52.580;9.734;2023-09-12T14:04:55;4.97;;;4.57;;
75191;SDS011;63771;52.580;9.734;2023-09-12T14:07:21;6.50;;;4.40;;
75191;SDS011;63771;52.580;9.734;2023-09-12T14:09:46;5.50;;;4.15;;
75191;SDS011;63771;52.580;9.734;2023-09-12T14:12:14;4.15;;;3.85;;
75191;SDS011;63771;52.580;9.734;2023-09-12T14:14:39;4.63;;;4.18;;
75191;SDS011;63771;52.580;9.734;2023-09-12T14:17:05;4.83;;;4.10;;
75191;SDS011;63771;52.580;9.734;2023-09-12T14:19:30;4.33;;;3.93;;
75191;SDS011;63771;52.580;9.734;2023-09-12T14:21:56;4.18;;;3.78;;
75191;SDS011;63771;52.580;9.734;2023-09-12T14:24:22;4.97;;;4.00;;
75191;SDS011;63771;52.580;9.734;2023-09-12T14:26:47;4.32;;;3.92;;
75191;SDS011;63771;52.580;9.734;2023-09-12T14:29:12;4.32;;;3.92;;
75191;SDS011;63771;52.580;9.734;2023-09-12T14:31:38;3.90;;;3.60;;
75191;SDS011;63771;52.580;9.734;2023-09-12T14:34:03;4.65;;;4.25;;
75191;SDS011;63771;52.580;9.734;2023-09-12T14:36:31;3.78;;;3.47;;
75191;SDS011;63771;52.580;9.734;2023-09-12T14:38:56;4.32;;;3.92;;
75191;SDS011;63771;52.580;9.734;2023-09-12T14:41:22;5.05;;;4.05;;
75191;SDS011;63771;52.580;9.734;2023-09-12T14:43:47;4.13;;;3.80;;
75191;SDS011;63771;52.580;9.734;2023-09-12T14:46:12;4.18;;;3.70;;
75191;SDS011;63771;52.580;9.734;2023-09-12T14:48:38;4.25;;;3.85;;
75191;SDS011;63771;52.580;9.734;2023-09-12T14:51:03;5.15;;;3.95;;
75191;SDS011;63771;52.580;9.734;2023-09-12T14:53:28;3.80;;;3.33;;
75191;SDS011;63771;52.580;9.734;2023-09-12T14:55:54;3.75;;;3.45;;